sensor_id;sensor_type;location;lat;lon;timestamp;pressure;altitude;pressure_sealevel;temperature;humidity
63306;BME280;50735;52.060;1.248;2024-01-16T00:01:17;100924.23;;;-3.58;47.89
63306;BME280;50735;52.060;1.248;2024-01-16T00:03:49;100928.37;;;-3.59;47.70
63306;BME280;50735;52.060;1.248;2024-01-16T00:06:21;100925.47;;;-3.42;47.76
63306;BME280;50735;52.060;1.248;2024-01-16T00:08:53;100922.98;;;-3.59;47.80
63306;BME280;50735;52.060;1.248;2024-01-16T00:11:25;100923.59;;;-3.55;47.64
63306;BME280;50735;52.060;1.248;2024-01-16T00:13:57;100920.50;;;-3.61;47.97
63306;BME280;50735;52.060;1.248;2024-01-16T00:16:29;100912.74;;;-3.42;47.90
63306;BME280;50735;52.060;1.248;2024-01-16T00:19:01;100914.09;;;-3.61;47.80
63306;BME280;50735;52.060;1.248;2024-01-16T00:21:38;100913.42;;;-3.46;47.98
63306;BME280;50735;52.060;1.248;2024-01-16T00:24:10;100911.44;;;-3.60;48.03
63306;BME280;50735;52.060;1.248;2024-01-16T00:26:42;100905.75;;;-3.39;48.00
63306;BME280;50735;52.060;1.248;2024-01-16T00:29:14;100900.94;;;-3.49;47.83
63306;BME280;50735;52.060;1.248;2024-01-16T00:31:46;100896.67;;;-3.47;48.06
63306;BME280;50735;52.060;1.248;2024-01-16T00:34:18;100890.13;;;-3.24;47.85
63306;BME280;50735;52.060;1.248;2024-01-16T00:36:50;100884.85;;;-3.18;47.97
63306;BME280;50735;52.060;1.248;2024-01-16T00:39:22;100884.27;;;-3.37;48.00
63306;BME280;50735;52.060;1.248;2024-01-16T00:41:54;100878.48;;;-3.34;47.74
63306;BME280;50735;52.060;1.248;2024-01-16T00:44:26;100872.17;;;-3.28;48.00
63306;BME280;50735;52.060;1.248;2024-01-16T00:46:58;100869.11;;;-3.32;47.88
63306;BME280;50735;52.060;1.248;2024-01-16T00:49:30;100874.23;;;-3.27;47.90
63306;BME280;50735;52.060;1.248;2024-01-16T00:52:02;100875.41;;;-3.34;47.66
63306;BME280;50735;52.060;1.248;2024-01-16T00:54:34;100875.09;;;-3.24;47.83
63306;BME280;50735;52.060;1.248;2024-01-16T00:57:06;100869.28;;;-3.58;48.20
63306;BME280;50735;52.060;1.248;2024-01-16T00:59:38;100869.91;;;-3.51;48.01
63306;BME280;50735;52.060;1.248;2024-01-16T01:02:11;100872.97;;;-3.54;47.89
63306;BME280;50735;52.060;1.248;2024-01-16T01:04:43;100875.20;;;-3.71;47.99
63306;BME280;50735;52.060;1.248;2024-01-16T01:07:15;100874.92;;;-3.51;48.03
63306;BME280;50735;52.060;1.248;2024-01-16T01:09:47;100875.01;;;-3.47;48.01
63306;BME280;50735;52.060;1.248;2024-01-16T01:12:19;100879.86;;;-3.37;47.83
63306;BME280;50735;52.060;1.248;2024-01-16T01:14:51;100878.65;;;-3.33;47.71
63306;BME280;50735;52.060;1.248;2024-01-16T01:17:23;100878.41;;;-3.27;47.98
63306;BME280;50735;52.060;1.248;2024-01-16T01:19:55;100873.70;;;-3.39;47.89
63306;BME280;50735;52.060;1.248;2024-01-16T01:22:27;100869.41;;;-3.23;47.77
63306;BME280;50735;52.060;1.248;2024-01-16T01:24:59;100869.52;;;-3.26;47.91
63306;BME280;50735;52.060;1.248;2024-01-16T01:27:31;100875.52;;;-3.27;47.98
63306;BME280;50735;52.060;1.248;2024-01-16T01:30:04;100876.91;;;-3.02;47.73
63306;BME280;50735;52.060;1.248;2024-01-16T01:32:36;100870.07;;;-3.17;47.48
63306;BME280;50735;52.060;1.248;2024-01-16T01:35:08;100865.66;;;-3.31;47.66
63306;BME280;50735;52.060;1.248;2024-01-16T01:37:40;100865.03;;;-3.30;47.84
63306;BME280;50735;52.060;1.248;2024-01-16T01:40:12;100869.45;;;-3.23;47.99
63306;BME280;50735;52.060;1.248;2024-01-16T01:42:44;100868.67;;;-3.40;48.09
63306;BME280;50735;52.060;1.248;2024-01-16T01:45:16;100865.59;;;-3.41;47.91
63306;BME280;50735;52.060;1.248;2024-01-16T01:47:49;100867.01;;;-3.49;48.26
63306;BME280;50735;52.060;1.248;2024-01-16T01:50:21;100867.02;;;-3.48;48.25
63306;BME280;50735;52.060;1.248;2024-01-16T01:52:53;100870.89;;;-3.33;48.33
63306;BME280;50735;52.060;1.248;2024-01-16T01:55:25;100879.29;;;-3.76;48.44
63306;BME280;50735;52.060;1.248;2024-01-16T01:57:57;100877.79;;;-3.64;48.40
63306;BME280;50735;52.060;1.248;2024-01-16T02:00:30;100873.37;;;-3.62;48.40
63306;BME280;50735;52.060;1.248;2024-01-16T02:03:01;100868.72;;;-3.74;48.80
63306;BME280;50735;52.060;1.248;2024-01-16T02:05:34;100865.83;;;-4.02;48.93
63306;BME280;50735;52.060;1.248;2024-01-16T02:08:06;100869.35;;;-3.75;48.93
63306;BME280;50735;52.060;1.248;2024-01-16T02:10:39;100873.23;;;-3.58;48.89
63306;BME280;50735;52.060;1.248;2024-01-16T02:13:14;100873.71;;;-3.74;48.81
63306;BME280;50735;52.060;1.248;2024-01-16T02:15:46;100873.93;;;-3.81;48.96
63306;BME280;50735;52.060;1.248;2024-01-16T02:18:18;100873.38;;;-4.03;49.31
63306;BME280;50735;52.060;1.248;2024-01-16T02:20:50;100872.31;;;-3.67;49.44
63306;BME280;50735;52.060;1.248;2024-01-16T02:23:26;100871.19;;;-3.95;49.35
63306;BME280;50735;52.060;1.248;2024-01-16T02:25:59;100866.50;;;-3.77;49.09
63306;BME280;50735;52.060;1.248;2024-01-16T02:28:31;100862.04;;;-3.47;48.82
63306;BME280;50735;52.060;1.248;2024-01-16T02:31:03;100859.24;;;-3.57;48.81
63306;BME280;50735;52.060;1.248;2024-01-16T02:33:35;100855.15;;;-3.67;48.52
63306;BME280;50735;52.060;1.248;2024-01-16T02:36:07;100849.08;;;-3.50;48.55
63306;BME280;50735;52.060;1.248;2024-01-16T02:38:39;100844.43;;;-3.37;48.49
63306;BME280;50735;52.060;1.248;2024-01-16T02:41:13;100843.20;;;-3.51;48.61
63306;BME280;50735;52.060;1.248;2024-01-16T02:43:45;100839.77;;;-3.55;48.42
63306;BME280;50735;52.060;1.248;2024-01-16T02:46:17;100837.84;;;-3.60;48.44
63306;BME280;50735;52.060;1.248;2024-01-16T02:48:50;100836.33;;;-3.53;48.24
63306;BME280;50735;52.060;1.248;2024-01-16T02:51:21;100835.64;;;-3.51;48.26
63306;BME280;50735;52.060;1.248;2024-01-16T02:53:53;100830.90;;;-3.25;48.09
63306;BME280;50735;52.060;1.248;2024-01-16T02:56:25;100830.89;;;-3.20;48.08
63306;BME280;50735;52.060;1.248;2024-01-16T02:58:57;100832.20;;;-3.12;48.11
63306;BME280;50735;52.060;1.248;2024-01-16T03:01:29;100831.14;;;-3.32;48.11
63306;BME280;50735;52.060;1.248;2024-01-16T03:04:01;100829.73;;;-3.40;48.04
63306;BME280;50735;52.060;1.248;2024-01-16T03:06:33;100829.02;;;-3.70;48.22
63306;BME280;50735;52.060;1.248;2024-01-16T03:09:05;100826.16;;;-3.48;48.37
63306;BME280;50735;52.060;1.248;2024-01-16T03:11:37;100827.06;;;-3.27;48.13
63306;BME280;50735;52.060;1.248;2024-01-16T03:14:09;100819.75;;;-3.43;48.18
63306;BME280;50735;52.060;1.248;2024-01-16T03:16:41;100812.72;;;-3.48;48.35
63306;BME280;50735;52.060;1.248;2024-01-16T03:19:13;100809.98;;;-3.55;48.50
63306;BME280;50735;52.060;1.248;2024-01-16T03:21:45;100809.85;;;-3.51;48.43
63306;BME280;50735;52.060;1.248;2024-01-16T03:24:17;100806.59;;;-3.41;48.24
63306;BME280;50735;52.060;1.248;2024-01-16T03:26:49;100802.50;;;-3.36;48.05
63306;BME280;50735;52.060;1.248;2024-01-16T03:29:21;100802.90;;;-3.36;48.07
63306;BME280;50735;52.060;1.248;2024-01-16T03:31:53;100807.87;;;-3.38;48.11
63306;BME280;50735;52.060;1.248;2024-01-16T03:34:25;100806.97;;;-3.36;48.18
63306;BME280;50735;52.060;1.248;2024-01-16T03:36:57;100805.12;;;-3.39;48.09
63306;BME280;50735;52.060;1.248;2024-01-16T03:39:29;100805.48;;;-3.35;48.17
63306;BME280;50735;52.060;1.248;2024-01-16T03:42:00;100809.04;;;-3.22;48.07
63306;BME280;50735;52.060;1.248;2024-01-16T03:44:33;100810.81;;;-2.95;47.98
63306;BME280;50735;52.060;1.248;2024-01-16T03:47:05;100811.34;;;-3.27;47.94
63306;BME280;50735;52.060;1.248;2024-01-16T03:49:36;100812.24;;;-3.16;47.78
63306;BME280;50735;52.060;1.248;2024-01-16T03:52:08;100809.03;;;-3.02;47.79
63306;BME280;50735;52.060;1.248;2024-01-16T03:54:40;100807.59;;;-3.32;47.82
63306;BME280;50735;52.060;1.248;2024-01-16T03:57:12;100808.70;;;-3.50;48.06
63306;BME280;50735;52.060;1.248;2024-01-16T03:59:44;100810.85;;;-3.65;48.41
63306;BME280;50735;52.060;1.248;2024-01-16T04:02:16;100808.16;;;-3.64;48.55
63306;BME280;50735;52.060;1.248;2024-01-16T04:04:48;100808.58;;;-3.57;48.62
63306;BME280;50735;52.060;1.248;2024-01-16T04:07:22;100806.39;;;-3.57;48.43
63306;BME280;50735;52.060;1.248;2024-01-16T04:09:54;100803.91;;;-3.59;48.50
63306;BME280;50735;52.060;1.248;2024-01-16T04:12:26;100801.21;;;-3.66;48.46
63306;BME280;50735;52.060;1.248;2024-01-16T04:14:58;100799.02;;;-3.57;48.37
63306;BME280;50735;52.060;1.248;2024-01-16T04:17:30;100796.82;;;-3.48;48.23
63306;BME280;50735;52.060;1.248;2024-01-16T04:20:03;100796.89;;;-3.43;47.81
63306;BME280;50735;52.060;1.248;2024-01-16T04:22:35;100795.12;;;-3.48;48.01
63306;BME280;50735;52.060;1.248;2024-01-16T04:25:08;100792.02;;;-3.54;47.98
63306;BME280;50735;52.060;1.248;2024-01-16T04:27:40;100792.17;;;-3.50;47.93
63306;BME280;50735;52.060;1.248;2024-01-16T04:30:12;100791.71;;;-3.72;47.96
63306;BME280;50735;52.060;1.248;2024-01-16T04:32:44;100789.21;;;-3.66;47.73
63306;BME280;50735;52.060;1.248;2024-01-16T04:35:16;100785.17;;;-3.39;47.93
63306;BME280;50735;52.060;1.248;2024-01-16T04:37:48;100780.58;;;-3.69;47.99
63306;BME280;50735;52.060;1.248;2024-01-16T04:40:20;100775.57;;;-3.62;48.53
63306;BME280;50735;52.060;1.248;2024-01-16T04:42:52;100769.60;;;-3.55;48.44
63306;BME280;50735;52.060;1.248;2024-01-16T04:45:25;100767.55;;;-3.62;48.45
63306;BME280;50735;52.060;1.248;2024-01-16T04:47:57;100767.23;;;-3.52;48.14
63306;BME280;50735;52.060;1.248;2024-01-16T04:50:29;100769.60;;;-3.59;48.28
63306;BME280;50735;52.060;1.248;2024-01-16T04:53:01;100768.10;;;-3.68;48.68
63306;BME280;50735;52.060;1.248;2024-01-16T04:55:34;100762.52;;;-3.81;49.10
63306;BME280;50735;52.060;1.248;2024-01-16T04:58:06;100756.24;;;-4.00;49.03
63306;BME280;50735;52.060;1.248;2024-01-16T05:00:38;100749.67;;;-3.50;48.78
63306;BME280;50735;52.060;1.248;2024-01-16T05:03:10;100750.15;;;-3.42;48.61
63306;BME280;50735;52.060;1.248;2024-01-16T05:05:42;100751.96;;;-3.55;48.61
63306;BME280;50735;52.060;1.248;2024-01-16T05:08:14;100747.68;;;-3.63;48.66
63306;BME280;50735;52.060;1.248;2024-01-16T05:10:46;100739.33;;;-3.64;48.60
63306;BME280;50735;52.060;1.248;2024-01-16T05:13:18;100733.35;;;-3.64;48.53
63306;BME280;50735;52.060;1.248;2024-01-16T05:15:50;100729.03;;;-3.70;48.65
63306;BME280;50735;52.060;1.248;2024-01-16T05:18:22;100721.51;;;-3.58;48.65
63306;BME280;50735;52.060;1.248;2024-01-16T05:20:54;100712.77;;;-3.50;48.26
63306;BME280;50735;52.060;1.248;2024-01-16T05:23:26;100713.76;;;-3.26;48.32
63306;BME280;50735;52.060;1.248;2024-01-16T05:25:58;100719.53;;;-3.44;48.03
63306;BME280;50735;52.060;1.248;2024-01-16T05:28:30;100720.65;;;-3.50;48.39
63306;BME280;50735;52.060;1.248;2024-01-16T05:31:02;100718.94;;;-3.54;48.42
63306;BME280;50735;52.060;1.248;2024-01-16T05:33:34;100718.10;;;-3.38;48.48
63306;BME280;50735;52.060;1.248;2024-01-16T05:36:06;100717.00;;;-3.61;48.50
63306;BME280;50735;52.060;1.248;2024-01-16T05:38:38;100714.65;;;-3.56;48.36
63306;BME280;50735;52.060;1.248;2024-01-16T05:41:10;100716.57;;;-3.73;48.43
63306;BME280;50735;52.060;1.248;2024-01-16T05:43:42;100717.04;;;-3.62;48.32
63306;BME280;50735;52.060;1.248;2024-01-16T05:46:14;100712.82;;;-3.54;48.31
63306;BME280;50735;52.060;1.248;2024-01-16T05:48:46;100715.55;;;-3.52;48.33
63306;BME280;50735;52.060;1.248;2024-01-16T05:51:18;100715.33;;;-3.38;48.26
63306;BME280;50735;52.060;1.248;2024-01-16T05:53:50;100717.39;;;-3.21;48.33
63306;BME280;50735;52.060;1.248;2024-01-16T05:56:22;100718.19;;;-3.67;48.54
63306;BME280;50735;52.060;1.248;2024-01-16T05:58:54;100719.98;;;-3.80;48.65
63306;BME280;50735;52.060;1.248;2024-01-16T06:01:25;100718.90;;;-3.77;48.80
63306;BME280;50735;52.060;1.248;2024-01-16T06:03:58;100714.41;;;-3.88;49.02
63306;BME280;50735;52.060;1.248;2024-01-16T06:06:30;100707.44;;;-3.94;49.05
63306;BME280;50735;52.060;1.248;2024-01-16T06:09:03;100703.80;;;-3.72;49.02
63306;BME280;50735;52.060;1.248;2024-01-16T06:11:35;100703.88;;;-3.41;48.84
63306;BME280;50735;52.060;1.248;2024-01-16T06:14:06;100698.58;;;-3.79;48.82
63306;BME280;50735;52.060;1.248;2024-01-16T06:16:38;100701.77;;;-3.66;48.46
63306;BME280;50735;52.060;1.248;2024-01-16T06:19:10;100701.77;;;-3.55;48.23
63306;BME280;50735;52.060;1.248;2024-01-16T06:21:42;100702.54;;;-3.59;48.26
63306;BME280;50735;52.060;1.248;2024-01-16T06:24:15;100704.08;;;-3.57;48.22
63306;BME280;50735;52.060;1.248;2024-01-16T06:26:46;100703.06;;;-3.40;48.11
63306;BME280;50735;52.060;1.248;2024-01-16T06:29:18;100701.65;;;-3.54;48.15
63306;BME280;50735;52.060;1.248;2024-01-16T06:31:50;100695.31;;;-3.70;48.28
63306;BME280;50735;52.060;1.248;2024-01-16T06:34:22;100696.22;;;-3.58;48.13
63306;BME280;50735;52.060;1.248;2024-01-16T06:36:55;100696.36;;;-3.51;48.26
63306;BME280;50735;52.060;1.248;2024-01-16T06:39:27;100697.27;;;-3.55;48.11
63306;BME280;50735;52.060;1.248;2024-01-16T06:41:59;100698.91;;;-3.60;48.50
63306;BME280;50735;52.060;1.248;2024-01-16T06:44:31;100694.20;;;-3.49;48.25
63306;BME280;50735;52.060;1.248;2024-01-16T06:47:03;100691.25;;;-3.41;48.07
63306;BME280;50735;52.060;1.248;2024-01-16T06:49:35;100695.53;;;-3.19;47.94
63306;BME280;50735;52.060;1.248;2024-01-16T06:52:08;100696.77;;;-3.38;47.75
63306;BME280;50735;52.060;1.248;2024-01-16T06:54:40;100696.27;;;-3.46;48.00
63306;BME280;50735;52.060;1.248;2024-01-16T06:57:12;100696.43;;;-3.35;48.27
63306;BME280;50735;52.060;1.248;2024-01-16T06:59:44;100698.57;;;-3.35;48.23
63306;BME280;50735;52.060;1.248;2024-01-16T07:02:16;100700.04;;;-3.35;48.27
63306;BME280;50735;52.060;1.248;2024-01-16T07:04:49;100698.03;;;-3.28;48.20
63306;BME280;50735;52.060;1.248;2024-01-16T07:07:20;100695.76;;;-3.59;48.54
63306;BME280;50735;52.060;1.248;2024-01-16T07:09:52;100689.67;;;-3.48;48.25
63306;BME280;50735;52.060;1.248;2024-01-16T07:12:24;100685.68;;;-3.51;48.45
63306;BME280;50735;52.060;1.248;2024-01-16T07:14:56;100688.07;;;-3.50;48.41
63306;BME280;50735;52.060;1.248;2024-01-16T07:17:28;100685.68;;;-3.30;48.17
63306;BME280;50735;52.060;1.248;2024-01-16T07:20:00;100682.84;;;-3.41;48.22
63306;BME280;50735;52.060;1.248;2024-01-16T07:22:32;100683.03;;;-3.58;48.04
63306;BME280;50735;52.060;1.248;2024-01-16T07:25:04;100680.40;;;-3.64;48.26
63306;BME280;50735;52.060;1.248;2024-01-16T07:27:36;100683.92;;;-3.50;48.33
63306;BME280;50735;52.060;1.248;2024-01-16T07:30:09;100689.09;;;-3.30;48.13
63306;BME280;50735;52.060;1.248;2024-01-16T07:32:41;100685.99;;;-3.47;48.09
63306;BME280;50735;52.060;1.248;2024-01-16T07:35:13;100683.37;;;-3.41;48.17
63306;BME280;50735;52.060;1.248;2024-01-16T07:37:45;100677.93;;;-3.61;48.23
63306;BME280;50735;52.060;1.248;2024-01-16T07:40:17;100680.22;;;-3.27;47.98
63306;BME280;50735;52.060;1.248;2024-01-16T07:42:49;100678.78;;;-3.44;48.03
63306;BME280;50735;52.060;1.248;2024-01-16T07:45:20;100680.82;;;-3.63;48.18
63306;BME280;50735;52.060;1.248;2024-01-16T07:47:52;100681.92;;;-3.61;48.19
63306;BME280;50735;52.060;1.248;2024-01-16T07:50:24;100679.29;;;-3.50;48.12
63306;BME280;50735;52.060;1.248;2024-01-16T07:52:57;100680.71;;;-3.26;57.30
63306;BME280;50735;52.060;1.248;2024-01-16T07:55:29;100678.49;;;-3.15;49.19
63306;BME280;50735;52.060;1.248;2024-01-16T07:58:00;100675.97;;;-3.13;49.12
63306;BME280;50735;52.060;1.248;2024-01-16T08:00:32;100672.17;;;-3.24;48.48
63306;BME280;50735;52.060;1.248;2024-01-16T08:03:07;100674.04;;;-3.39;48.34
63306;BME280;50735;52.060;1.248;2024-01-16T08:05:40;100673.07;;;-3.12;48.22
63306;BME280;50735;52.060;1.248;2024-01-16T08:08:11;100667.79;;;-3.16;48.22
63306;BME280;50735;52.060;1.248;2024-01-16T08:10:43;100669.48;;;-3.24;48.18
63306;BME280;50735;52.060;1.248;2024-01-16T08:13:15;100674.06;;;-3.24;48.19
63306;BME280;50735;52.060;1.248;2024-01-16T08:15:47;100671.89;;;-3.32;48.35
63306;BME280;50735;52.060;1.248;2024-01-16T08:18:19;100662.36;;;-3.35;48.34
63306;BME280;50735;52.060;1.248;2024-01-16T08:20:51;100659.82;;;-2.90;61.23
63306;BME280;50735;52.060;1.248;2024-01-16T08:23:23;100652.96;;;-3.25;49.85
63306;BME280;50735;52.060;1.248;2024-01-16T08:25:54;100648.12;;;-3.32;49.76
63306;BME280;50735;52.060;1.248;2024-01-16T08:28:27;100647.84;;;-3.63;49.39
63306;BME280;50735;52.060;1.248;2024-01-16T08:30:59;100647.40;;;-3.48;49.44
63306;BME280;50735;52.060;1.248;2024-01-16T08:33:31;100645.44;;;-3.45;49.35
63306;BME280;50735;52.060;1.248;2024-01-16T08:36:04;100649.91;;;-3.34;55.60
63306;BME280;50735;52.060;1.248;2024-01-16T08:38:36;100654.68;;;-3.25;49.83
63306;BME280;50735;52.060;1.248;2024-01-16T08:41:08;100652.35;;;-3.32;49.48
63306;BME280;50735;52.060;1.248;2024-01-16T08:43:39;100651.91;;;-3.24;48.66
63306;BME280;50735;52.060;1.248;2024-01-16T08:46:11;100648.19;;;-3.05;48.78
63306;BME280;50735;52.060;1.248;2024-01-16T08:48:44;100645.46;;;-2.70;48.98
63306;BME280;50735;52.060;1.248;2024-01-16T08:51:16;100643.92;;;-2.23;48.02
63306;BME280;50735;52.060;1.248;2024-01-16T08:53:47;100642.21;;;-1.96;46.27
63306;BME280;50735;52.060;1.248;2024-01-16T08:56:19;100637.12;;;-1.63;46.40
63306;BME280;50735;52.060;1.248;2024-01-16T08:58:51;100635.16;;;-1.77;45.52
63306;BME280;50735;52.060;1.248;2024-01-16T09:01:23;100634.95;;;-1.47;45.32
63306;BME280;50735;52.060;1.248;2024-01-16T09:03:54;100632.86;;;-1.69;44.67
63306;BME280;50735;52.060;1.248;2024-01-16T09:06:26;100628.06;;;-1.27;44.65
63306;BME280;50735;52.060;1.248;2024-01-16T09:08:59;100629.18;;;-1.26;44.14
63306;BME280;50735;52.060;1.248;2024-01-16T09:11:30;100622.93;;;-1.25;43.48
63306;BME280;50735;52.060;1.248;2024-01-16T09:14:02;100623.41;;;-1.73;43.55
63306;BME280;50735;52.060;1.248;2024-01-16T09:16:34;100624.07;;;-1.38;43.78
63306;BME280;50735;52.060;1.248;2024-01-16T09:19:06;100624.88;;;-0.51;42.78
63306;BME280;50735;52.060;1.248;2024-01-16T09:21:38;100622.71;;;-0.18;42.55
63306;BME280;50735;52.060;1.248;2024-01-16T09:24:09;100620.89;;;-0.25;41.57
63306;BME280;50735;52.060;1.248;2024-01-16T09:26:41;100617.57;;;-0.08;41.83
63306;BME280;50735;52.060;1.248;2024-01-16T09:29:13;100620.85;;;0.10;40.72
63306;BME280;50735;52.060;1.248;2024-01-16T09:31:45;100626.29;;;0.45;40.83
63306;BME280;50735;52.060;1.248;2024-01-16T09:34:17;100624.02;;;0.31;40.89
63306;BME280;50735;52.060;1.248;2024-01-16T09:36:49;100619.09;;;1.16;40.97
63306;BME280;50735;52.060;1.248;2024-01-16T09:39:21;100618.20;;;1.25;39.70
63306;BME280;50735;52.060;1.248;2024-01-16T09:41:52;100614.19;;;0.92;39.41
63306;BME280;50735;52.060;1.248;2024-01-16T09:44:24;100608.44;;;0.96;39.41
63306;BME280;50735;52.060;1.248;2024-01-16T09:46:58;100595.29;;;1.57;39.85
63306;BME280;50735;52.060;1.248;2024-01-16T09:49:30;100600.30;;;1.38;38.71
63306;BME280;50735;52.060;1.248;2024-01-16T09:52:03;100602.10;;;1.47;39.32
63306;BME280;50735;52.060;1.248;2024-01-16T09:54:34;100602.24;;;1.36;39.30
63306;BME280;50735;52.060;1.248;2024-01-16T09:57:07;100610.48;;;1.51;38.14
63306;BME280;50735;52.060;1.248;2024-01-16T09:59:40;100605.69;;;1.59;37.99
63306;BME280;50735;52.060;1.248;2024-01-16T10:02:13;100603.41;;;1.71;38.69
63306;BME280;50735;52.060;1.248;2024-01-16T10:04:45;100600.36;;;1.79;38.02
63306;BME280;50735;52.060;1.248;2024-01-16T10:07:17;100597.69;;;1.83;38.06
63306;BME280;50735;52.060;1.248;2024-01-16T10:09:51;100595.03;;;1.51;38.36
63306;BME280;50735;52.060;1.248;2024-01-16T10:12:22;100590.62;;;1.83;38.43
63306;BME280;50735;52.060;1.248;2024-01-16T10:14:55;100586.05;;;1.88;38.17
63306;BME280;50735;52.060;1.248;2024-01-16T10:17:38;100587.93;;;2.18;37.55
63306;BME280;50735;52.060;1.248;2024-01-16T10:20:11;100585.74;;;2.04;37.35
63306;BME280;50735;52.060;1.248;2024-01-16T10:22:52;100581.10;;;2.30;37.63
63306;BME280;50735;52.060;1.248;2024-01-16T10:25:24;100577.63;;;2.31;37.81
63306;BME280;50735;52.060;1.248;2024-01-16T10:28:04;100576.83;;;2.26;37.17
63306;BME280;50735;52.060;1.248;2024-01-16T10:30:36;100568.28;;;2.21;37.78
63306;BME280;50735;52.060;1.248;2024-01-16T10:33:16;100566.17;;;2.45;37.12
63306;BME280;50735;52.060;1.248;2024-01-16T10:35:48;100566.60;;;3.28;36.11
63306;BME280;50735;52.060;1.248;2024-01-16T10:38:20;100567.82;;;2.88;35.66
63306;BME280;50735;52.060;1.248;2024-01-16T10:41:04;100566.07;;;3.37;35.52
63306;BME280;50735;52.060;1.248;2024-01-16T10:43:37;100562.30;;;2.57;35.63
63306;BME280;50735;52.060;1.248;2024-01-16T10:46:11;100564.54;;;3.06;35.82
63306;BME280;50735;52.060;1.248;2024-01-16T10:48:44;100564.06;;;3.04;35.52
63306;BME280;50735;52.060;1.248;2024-01-16T10:51:16;100557.33;;;3.18;35.89
63306;BME280;50735;52.060;1.248;2024-01-16T10:53:48;100554.95;;;3.00;35.25
63306;BME280;50735;52.060;1.248;2024-01-16T10:56:21;100554.73;;;3.69;35.43
63306;BME280;50735;52.060;1.248;2024-01-16T10:58:59;100549.61;;;3.78;35.10
63306;BME280;50735;52.060;1.248;2024-01-16T11:01:33;100541.14;;;4.37;34.66
63306;BME280;50735;52.060;1.248;2024-01-16T11:04:07;100534.50;;;4.31;34.24
63306;BME280;50735;52.060;1.248;2024-01-16T11:06:40;100533.14;;;4.42;34.42
63306;BME280;50735;52.060;1.248;2024-01-16T11:09:13;100527.41;;;4.07;34.39
63306;BME280;50735;52.060;1.248;2024-01-16T11:11:45;100518.78;;;4.85;34.13
63306;BME280;50735;52.060;1.248;2024-01-16T11:14:18;100514.08;;;4.82;33.90
63306;BME280;50735;52.060;1.248;2024-01-16T11:16:53;100509.02;;;4.71;33.36
63306;BME280;50735;52.060;1.248;2024-01-16T11:19:27;100508.46;;;4.71;33.43
63306;BME280;50735;52.060;1.248;2024-01-16T11:22:00;100509.00;;;4.64;33.34
63306;BME280;50735;52.060;1.248;2024-01-16T11:24:32;100509.88;;;4.30;33.36
63306;BME280;50735;52.060;1.248;2024-01-16T11:27:04;100515.35;;;4.52;33.37
63306;BME280;50735;52.060;1.248;2024-01-16T11:29:36;100509.35;;;4.63;33.30
63306;BME280;50735;52.060;1.248;2024-01-16T11:32:08;100504.45;;;4.85;33.54
63306;BME280;50735;52.060;1.248;2024-01-16T11:35:04;100503.31;;;4.49;33.34
63306;BME280;50735;52.060;1.248;2024-01-16T11:37:39;100496.22;;;4.10;34.19
63306;BME280;50735;52.060;1.248;2024-01-16T11:40:32;100497.47;;;4.54;33.68
63306;BME280;50735;52.060;1.248;2024-01-16T11:43:35;100494.12;;;4.76;33.21
63306;BME280;50735;52.060;1.248;2024-01-16T11:46:08;100494.06;;;4.58;33.38
63306;BME280;50735;52.060;1.248;2024-01-16T11:48:40;100493.57;;;4.76;33.11
63306;BME280;50735;52.060;1.248;2024-01-16T11:51:28;100494.18;;;4.86;32.90
63306;BME280;50735;52.060;1.248;2024-01-16T11:54:00;100494.28;;;4.85;32.81
63306;BME280;50735;52.060;1.248;2024-01-16T11:56:42;100486.79;;;5.37;32.69
63306;BME280;50735;52.060;1.248;2024-01-16T11:59:42;100480.58;;;5.40;31.99
63306;BME280;50735;52.060;1.248;2024-01-16T12:02:23;100478.66;;;4.72;32.39
63306;BME280;50735;52.060;1.248;2024-01-16T12:04:57;100474.03;;;4.91;33.01
63306;BME280;50735;52.060;1.248;2024-01-16T12:07:29;100474.30;;;4.48;32.85
63306;BME280;50735;52.060;1.248;2024-01-16T12:10:01;100471.37;;;4.79;32.42
63306;BME280;50735;52.060;1.248;2024-01-16T12:12:32;100468.10;;;4.92;32.53
63306;BME280;50735;52.060;1.248;2024-01-16T12:15:05;100466.24;;;5.14;32.18
63306;BME280;50735;52.060;1.248;2024-01-16T12:17:37;100458.97;;;5.59;32.14
63306;BME280;50735;52.060;1.248;2024-01-16T12:20:16;100454.74;;;5.64;31.93
63306;BME280;50735;52.060;1.248;2024-01-16T12:22:54;100450.70;;;5.77;31.72
63306;BME280;50735;52.060;1.248;2024-01-16T12:25:27;100451.85;;;5.20;31.61
63306;BME280;50735;52.060;1.248;2024-01-16T12:28:01;100439.23;;;5.51;31.75
63306;BME280;50735;52.060;1.248;2024-01-16T12:30:34;100436.52;;;5.01;32.22
63306;BME280;50735;52.060;1.248;2024-01-16T12:33:07;100431.06;;;4.81;32.41
63306;BME280;50735;52.060;1.248;2024-01-16T12:35:40;100432.64;;;5.07;32.78
63306;BME280;50735;52.060;1.248;2024-01-16T12:38:13;100426.93;;;5.08;32.07
63306;BME280;50735;52.060;1.248;2024-01-16T12:40:48;100424.67;;;5.32;32.25
63306;BME280;50735;52.060;1.248;2024-01-16T12:43:20;100416.51;;;5.57;32.07
63306;BME280;50735;52.060;1.248;2024-01-16T12:45:55;100408.20;;;5.21;32.45
63306;BME280;50735;52.060;1.248;2024-01-16T12:48:26;100399.53;;;5.04;32.61
63306;BME280;50735;52.060;1.248;2024-01-16T12:50:59;100391.54;;;5.11;32.47
63306;BME280;50735;52.060;1.248;2024-01-16T12:53:31;100389.17;;;4.75;32.73
63306;BME280;50735;52.060;1.248;2024-01-16T12:56:03;100388.48;;;4.84;32.45
63306;BME280;50735;52.060;1.248;2024-01-16T12:58:36;100384.47;;;4.86;32.85
63306;BME280;50735;52.060;1.248;2024-01-16T13:01:24;100381.56;;;4.52;32.69
63306;BME280;50735;52.060;1.248;2024-01-16T13:03:56;100378.37;;;4.22;32.96
63306;BME280;50735;52.060;1.248;2024-01-16T13:06:28;100369.30;;;4.85;32.82
63306;BME280;50735;52.060;1.248;2024-01-16T13:09:05;100369.42;;;5.07;32.30
63306;BME280;50735;52.060;1.248;2024-01-16T13:11:47;100366.22;;;4.55;32.69
63306;BME280;50735;52.060;1.248;2024-01-16T13:14:20;100365.16;;;4.45;33.19
63306;BME280;50735;52.060;1.248;2024-01-16T13:16:53;100356.95;;;4.39;33.28
63306;BME280;50735;52.060;1.248;2024-01-16T13:19:25;100344.10;;;4.78;32.91
63306;BME280;50735;52.060;1.248;2024-01-16T13:21:57;100336.88;;;5.05;32.72